Terminal Aerodrome Forecast
Issued by NWS

Home | Current Version | Previous Version | Text Only | Print | Product List | Glossary On
Versions: 1 2 3 4 5 6 7 8 9 10 11 12 13 14 15 16
000
FTUS45 KRIW 180500
TAFCPR
TAF
KCPR 180535Z 1806/1906 35005KT P6SM VCFG SCT003 OVC011
      TEMPO 1807/1811 1 1/2SM BR BKN003
     FM181500 34008KT P6SM SCT012 BKN025
     FM181900 36013G21KT 5SM -RA BR SCT007 OVC015
     FM190300 02011KT 3SM -SN OVC012=

USA.gov is the U.S. government's official web portal to all federal, state and local government web resources and services.